Crowborough, United Kingdom
Current Conditions -  °F | °C
As of 9:20 PM on Friday 24 Oct 2014 (Local Time) from EGKK Reporting Station
Light Rain Light Rain  
Wind Chill: 59°   Ceiling: 2500
Heat Index: 59°   Visibility: 6mi
Dew Point: 55°   Wind: 8mph
Humidity: 88%   Direction: 250°WSW
Pressure: 29.97"   Gusts: NA
Location:  51.06°N, 0.16°E
Report Text: EGKK 242020Z 25007KT 9999 -RADZ SCT015 BKN025 15/13 Q1015
Loading
Personal Weather Stations






























Interactive Weather Map
Tropical Storm Tracking
New forecast layout! Learn more

10-Day Weather Forecast

Advertisements
Track Severe Weather on mobile